Terminal Aerodrome Forecast
Issued by NWS

Home | Current Version | Previous Version | Text Only | Print | Product List | Glossary On
Versions: 1 2 3 4 5 6 7 8 9 10 11 12 13 14 15 16 17 18
000
FTAK31 PAJN 261100
TAFAJN
TAF
PAJN 261136Z 2612/2712 00000KT P6SM BCFG VCSH FEW001 BKN011 OVC025
     FM261900 09004KT P6SM SCT020 BKN050
     FM262200 09008KT P6SM SCT050
     FM270300 09008G15KT P6SM SKC WS020/04030KT
     FM270800 09008KT P6SM SKC WS020/04040KT=

USA.gov is the U.S. government's official web portal to all federal, state and local government web resources and services.